sensor_id;sensor_type;location;lat;lon;timestamp;pressure;altitude;pressure_sealevel;temperature;humidity
61682;BME280;47577;43.610;25.010;2023-01-27T00:01:02;99940.53;;;3.42;99.27
61682;BME280;47577;43.610;25.010;2023-01-27T00:03:28;99937.88;;;3.43;99.80
61682;BME280;47577;43.610;25.010;2023-01-27T00:05:53;99930.16;;;3.28;100.00
61682;BME280;47577;43.610;25.010;2023-01-27T00:08:19;99938.81;;;3.38;100.00
61682;BME280;47577;43.610;25.010;2023-01-27T00:10:45;99925.66;;;3.38;100.00
61682;BME280;47577;43.610;25.010;2023-01-27T00:13:12;99937.97;;;3.34;99.71
61682;BME280;47577;43.610;25.010;2023-01-27T00:15:56;99930.88;;;3.41;100.00
61682;BME280;47577;43.610;25.010;2023-01-27T00:18:22;99943.22;;;3.36;100.00
61682;BME280;47577;43.610;25.010;2023-01-27T00:20:48;99944.84;;;3.44;100.00
61682;BME280;47577;43.610;25.010;2023-01-27T00:23:31;99940.44;;;3.45;99.41
61682;BME280;47577;43.610;25.010;2023-01-27T00:26:17;99939.66;;;3.40;100.00
61682;BME280;47577;43.610;25.010;2023-01-27T00:28:45;99946.66;;;3.41;100.00
61682;BME280;47577;43.610;25.010;2023-01-27T00:31:12;99941.38;;;3.44;99.87
61682;BME280;47577;43.610;25.010;2023-01-27T00:33:56;99938.03;;;3.28;99.79
61682;BME280;47577;43.610;25.010;2023-01-27T00:36:29;99944.16;;;3.27;100.00
61682;BME280;47577;43.610;25.010;2023-01-27T00:38:55;99944.09;;;3.35;100.00
61682;BME280;47577;43.610;25.010;2023-01-27T00:41:21;99946.75;;;3.30;100.00
61682;BME280;47577;43.610;25.010;2023-01-27T00:43:52;99946.75;;;3.32;100.00
61682;BME280;47577;43.610;25.010;2023-01-27T00:46:19;99941.59;;;3.22;100.00
61682;BME280;47577;43.610;25.010;2023-01-27T00:48:45;99955.59;;;3.26;100.00
61682;BME280;47577;43.610;25.010;2023-01-27T00:51:11;99946.78;;;3.28;100.00
61682;BME280;47577;43.610;25.010;2023-01-27T00:53:38;99922.41;;;3.16;100.00
61682;BME280;47577;43.610;25.010;2023-01-27T00:56:05;99921.47;;;3.21;100.00
61682;BME280;47577;43.610;25.010;2023-01-27T00:58:31;99919.03;;;3.04;100.00
61682;BME280;47577;43.610;25.010;2023-01-27T01:01:01;99920.69;;;3.15;99.83
61682;BME280;47577;43.610;25.010;2023-01-27T01:03:29;99912.81;;;3.13;100.00
61682;BME280;47577;43.610;25.010;2023-01-27T01:05:59;99917.94;;;3.24;100.00
61682;BME280;47577;43.610;25.010;2023-01-27T01:08:26;99921.47;;;3.23;100.00
61682;BME280;47577;43.610;25.010;2023-01-27T01:10:52;99904.97;;;3.10;100.00
61682;BME280;47577;43.610;25.010;2023-01-27T01:13:18;99910.25;;;3.07;100.00
61682;BME280;47577;43.610;25.010;2023-01-27T01:15:44;99928.44;;;3.22;100.00
61682;BME280;47577;43.610;25.010;2023-01-27T01:18:10;99920.56;;;3.22;99.62
61682;BME280;47577;43.610;25.010;2023-01-27T01:20:37;99934.44;;;3.34;100.00
61682;BME280;47577;43.610;25.010;2023-01-27T01:23:04;99930.13;;;3.31;99.10
61682;BME280;47577;43.610;25.010;2023-01-27T01:25:30;99933.59;;;3.32;99.44
61682;BME280;47577;43.610;25.010;2023-01-27T01:27:56;99930.94;;;3.35;99.01
61682;BME280;47577;43.610;25.010;2023-01-27T01:30:22;99938.91;;;3.28;99.06
61682;BME280;47577;43.610;25.010;2023-01-27T01:32:51;99933.63;;;3.30;99.41
61682;BME280;47577;43.610;25.010;2023-01-27T01:35:17;99938.91;;;3.27;99.99
61682;BME280;47577;43.610;25.010;2023-01-27T01:37:43;99927.63;;;3.17;100.00
61682;BME280;47577;43.610;25.010;2023-01-27T01:40:10;99924.09;;;3.21;99.64
61682;BME280;47577;43.610;25.010;2023-01-27T01:48:08;99910.25;;;3.05;100.00
61682;BME280;47577;43.610;25.010;2023-01-27T01:50:35;99907.44;;;3.22;100.00
61682;BME280;47577;43.610;25.010;2023-01-27T01:53:03;99890.25;;;2.93;99.79
61682;BME280;47577;43.610;25.010;2023-01-27T01:55:33;99894.50;;;3.05;100.00
61682;BME280;47577;43.610;25.010;2023-01-27T01:58:01;99890.81;;;3.20;100.00
61682;BME280;47577;43.610;25.010;2023-01-27T02:00:28;99888.38;;;3.05;100.00
61682;BME280;47577;43.610;25.010;2023-01-27T02:02:54;99894.44;;;3.11;100.00
61682;BME280;47577;43.610;25.010;2023-01-27T02:05:26;99890.09;;;3.06;100.00
61682;BME280;47577;43.610;25.010;2023-01-27T02:10:22;99895.22;;;3.20;100.00
61682;BME280;47577;43.610;25.010;2023-01-27T02:12:48;99899.53;;;3.24;99.20
61682;BME280;47577;43.610;25.010;2023-01-27T02:15:14;99891.84;;;3.08;100.00
61682;BME280;47577;43.610;25.010;2023-01-27T02:17:40;99888.25;;;3.14;99.76
61682;BME280;47577;43.610;25.010;2023-01-27T02:28:12;99850.56;;;3.20;100.00
61682;BME280;47577;43.610;25.010;2023-01-27T02:30:38;99839.09;;;3.24;100.00
61682;BME280;47577;43.610;25.010;2023-01-27T02:33:13;99832.91;;;3.29;100.00
61682;BME280;47577;43.610;25.010;2023-01-27T02:36:02;99822.44;;;3.25;99.75
61682;BME280;47577;43.610;25.010;2023-01-27T02:38:34;99813.81;;;3.17;99.67
61682;BME280;47577;43.610;25.010;2023-01-27T02:41:10;99822.66;;;3.11;100.00
61682;BME280;47577;43.610;25.010;2023-01-27T02:43:37;99822.56;;;3.16;100.00
61682;BME280;47577;43.610;25.010;2023-01-27T02:46:03;99828.53;;;3.28;99.37
61682;BME280;47577;43.610;25.010;2023-01-27T02:48:29;99822.56;;;3.14;99.51
61682;BME280;47577;43.610;25.010;2023-01-27T02:50:55;99839.16;;;3.21;98.52
61682;BME280;47577;43.610;25.010;2023-01-27T02:53:20;99855.88;;;3.14;99.06
61682;BME280;47577;43.610;25.010;2023-01-27T02:55:49;99829.63;;;3.10;99.90
61682;BME280;47577;43.610;25.010;2023-01-27T02:58:15;99839.47;;;2.93;100.00
61682;BME280;47577;43.610;25.010;2023-01-27T03:00:42;99844.69;;;2.95;100.00
61682;BME280;47577;43.610;25.010;2023-01-27T03:03:08;99847.34;;;2.93;100.00
61682;BME280;47577;43.610;25.010;2023-01-27T03:05:34;99852.56;;;2.96;99.38
61682;BME280;47577;43.610;25.010;2023-01-27T03:07:59;99844.69;;;2.96;99.96
61682;BME280;47577;43.610;25.010;2023-01-27T03:10:25;99844.78;;;2.90;99.69
61682;BME280;47577;43.610;25.010;2023-01-27T03:12:51;99830.75;;;2.89;100.00
61682;BME280;47577;43.610;25.010;2023-01-27T03:15:16;99849.09;;;2.96;99.65
61682;BME280;47577;43.610;25.010;2023-01-27T03:18:09;99844.69;;;2.96;100.00
61682;BME280;47577;43.610;25.010;2023-01-27T03:20:42;99833.19;;;3.08;99.08
61682;BME280;47577;43.610;25.010;2023-01-27T03:23:08;99831.50;;;3.02;98.81
61682;BME280;47577;43.610;25.010;2023-01-27T03:25:35;99838.72;;;2.80;98.31
61682;BME280;47577;43.610;25.010;2023-01-27T03:28:01;99823.06;;;2.74;99.57
61682;BME280;47577;43.610;25.010;2023-01-27T03:30:28;99817.81;;;2.74;98.92
61682;BME280;47577;43.610;25.010;2023-01-27T03:32:53;99828.19;;;2.83;98.78
61682;BME280;47577;43.610;25.010;2023-01-27T03:35:19;99827.25;;;2.90;98.97
61682;BME280;47577;43.610;25.010;2023-01-27T03:37:48;99837.06;;;2.73;99.77
61682;BME280;47577;43.610;25.010;2023-01-27T03:40:33;99851.06;;;2.72;100.00
61682;BME280;47577;43.610;25.010;2023-01-27T03:43:17;99843.28;;;2.67;100.00
61682;BME280;47577;43.610;25.010;2023-01-27T03:46:01;99853.69;;;2.73;100.00
61682;BME280;47577;43.610;25.010;2023-01-27T03:48:51;99866.00;;;2.67;100.00
61682;BME280;47577;43.610;25.010;2023-01-27T03:51:19;99858.03;;;2.79;100.00
61682;BME280;47577;43.610;25.010;2023-01-27T03:53:45;99855.38;;;2.82;100.00
61682;BME280;47577;43.610;25.010;2023-01-27T03:56:12;99846.75;;;2.68;100.00
61682;BME280;47577;43.610;25.010;2023-01-27T03:58:40;99849.22;;;2.83;100.00
61682;BME280;47577;43.610;25.010;2023-01-27T04:01:06;99862.38;;;2.80;99.64
61682;BME280;47577;43.610;25.010;2023-01-27T04:03:37;99866.69;;;2.87;100.00
61682;BME280;47577;43.610;25.010;2023-01-27T04:06:24;99876.16;;;3.01;100.00
61682;BME280;47577;43.610;25.010;2023-01-27T04:09:10;99867.41;;;3.02;99.70
61682;BME280;47577;43.610;25.010;2023-01-27T04:11:37;99868.31;;;2.98;98.78
61682;BME280;47577;43.610;25.010;2023-01-27T04:14:30;99869.19;;;3.00;98.98
61682;BME280;47577;43.610;25.010;2023-01-27T04:17:08;99869.19;;;2.98;99.51
61682;BME280;47577;43.610;25.010;2023-01-27T04:19:35;99858.56;;;3.07;98.73
61682;BME280;47577;43.610;25.010;2023-01-27T04:22:01;99851.69;;;2.99;98.66
61682;BME280;47577;43.610;25.010;2023-01-27T04:24:27;99859.47;;;3.08;98.45
61682;BME280;47577;43.610;25.010;2023-01-27T04:29:23;99843.78;;;2.99;98.79
61682;BME280;47577;43.610;25.010;2023-01-27T04:31:48;99855.91;;;3.10;98.41
61682;BME280;47577;43.610;25.010;2023-01-27T04:34:14;99846.41;;;3.02;98.16
61682;BME280;47577;43.610;25.010;2023-01-27T04:36:40;99836.84;;;2.93;98.85
61682;BME280;47577;43.610;25.010;2023-01-27T04:39:06;99831.75;;;2.79;99.90
61682;BME280;47577;43.610;25.010;2023-01-27T04:41:33;99843.00;;;2.92;99.64
61682;BME280;47577;43.610;25.010;2023-01-27T04:43:58;99841.38;;;2.80;99.25
61682;BME280;47577;43.610;25.010;2023-01-27T04:46:24;99828.22;;;2.80;100.00
61682;BME280;47577;43.610;25.010;2023-01-27T04:48:49;99828.19;;;2.83;99.15
61682;BME280;47577;43.610;25.010;2023-01-27T04:51:15;99839.56;;;2.88;99.98
61682;BME280;47577;43.610;25.010;2023-01-27T04:53:41;99839.66;;;2.79;99.09
61682;BME280;47577;43.610;25.010;2023-01-27T04:56:19;99839.56;;;2.87;99.83
61682;BME280;47577;43.610;25.010;2023-01-27T04:58:46;99842.34;;;2.71;99.68
61682;BME280;47577;43.610;25.010;2023-01-27T05:01:11;99851.94;;;2.76;100.00
61682;BME280;47577;43.610;25.010;2023-01-27T05:03:37;99850.06;;;2.88;99.98
61682;BME280;47577;43.610;25.010;2023-01-27T05:06:03;99853.53;;;2.90;99.35
61682;BME280;47577;43.610;25.010;2023-01-27T05:08:29;99862.28;;;2.88;98.90
61682;BME280;47577;43.610;25.010;2023-01-27T05:10:55;99857.84;;;2.95;98.61
61682;BME280;47577;43.610;25.010;2023-01-27T05:13:21;99848.31;;;2.87;98.45
61682;BME280;47577;43.610;25.010;2023-01-27T05:15:46;99848.31;;;2.86;99.50
61682;BME280;47577;43.610;25.010;2023-01-27T05:18:13;99833.56;;;2.76;100.00
61682;BME280;47577;43.610;25.010;2023-01-27T05:20:39;99843.03;;;2.89;99.39
61682;BME280;47577;43.610;25.010;2023-01-27T05:23:04;99846.53;;;2.88;100.00
61682;BME280;47577;43.610;25.010;2023-01-27T05:25:48;99860.44;;;2.98;99.54
61682;BME280;47577;43.610;25.010;2023-01-27T05:28:14;99858.75;;;2.93;99.99
61682;BME280;47577;43.610;25.010;2023-01-27T05:30:39;99867.41;;;3.02;98.67
61682;BME280;47577;43.610;25.010;2023-01-27T05:33:05;99850.91;;;2.89;98.76
61682;BME280;47577;43.610;25.010;2023-01-27T05:35:33;99843.78;;;2.99;99.18
61682;BME280;47577;43.610;25.010;2023-01-27T05:37:59;99841.19;;;2.96;99.96
61682;BME280;47577;43.610;25.010;2023-01-27T05:40:26;99838.59;;;2.92;98.96
61682;BME280;47577;43.610;25.010;2023-01-27T05:42:52;99846.44;;;2.99;99.50
61682;BME280;47577;43.610;25.010;2023-01-27T05:45:18;99848.28;;;2.90;99.37
61682;BME280;47577;43.610;25.010;2023-01-27T05:47:50;99850.88;;;2.93;99.24
61682;BME280;47577;43.610;25.010;2023-01-27T05:50:16;99845.56;;;2.98;98.93
61682;BME280;47577;43.610;25.010;2023-01-27T05:52:41;99855.25;;;2.91;99.11
61682;BME280;47577;43.610;25.010;2023-01-27T05:55:07;99850.16;;;2.79;100.00
61682;BME280;47577;43.610;25.010;2023-01-27T05:57:34;99849.28;;;2.79;100.00
61682;BME280;47577;43.610;25.010;2023-01-27T06:00:00;99858.78;;;2.90;100.00
61682;BME280;47577;43.610;25.010;2023-01-27T06:02:25;99843.97;;;2.83;100.00
61682;BME280;47577;43.610;25.010;2023-01-27T06:04:51;99856.31;;;2.75;100.00
61682;BME280;47577;43.610;25.010;2023-01-27T06:07:16;99859.81;;;2.76;100.00
61682;BME280;47577;43.610;25.010;2023-01-27T06:09:42;99860.69;;;2.76;100.00
61682;BME280;47577;43.610;25.010;2023-01-27T06:12:08;99866.72;;;2.84;100.00
61682;BME280;47577;43.610;25.010;2023-01-27T06:14:33;99874.59;;;2.84;100.00
61682;BME280;47577;43.610;25.010;2023-01-27T06:16:59;99873.81;;;2.74;100.00
61682;BME280;47577;43.610;25.010;2023-01-27T06:19:25;99859.81;;;2.77;100.00
61682;BME280;47577;43.610;25.010;2023-01-27T06:21:51;99869.41;;;2.78;100.00
61682;BME280;47577;43.610;25.010;2023-01-27T06:24:16;99873.72;;;2.85;100.00
61682;BME280;47577;43.610;25.010;2023-01-27T06:26:42;99874.38;;;3.01;100.00
61682;BME280;47577;43.610;25.010;2023-01-27T06:29:08;99872.72;;;2.97;99.73
61682;BME280;47577;43.610;25.010;2023-01-27T06:31:34;99873.50;;;3.04;100.00
61682;BME280;47577;43.610;25.010;2023-01-27T06:33:59;99867.47;;;2.96;99.56
61682;BME280;47577;43.610;25.010;2023-01-27T06:36:25;99878.06;;;2.88;99.87
61682;BME280;47577;43.610;25.010;2023-01-27T06:38:50;99860.66;;;2.79;99.97
61682;BME280;47577;43.610;25.010;2023-01-27T06:41:17;99858.91;;;2.77;100.00
61682;BME280;47577;43.610;25.010;2023-01-27T06:43:43;99868.47;;;2.84;100.00
61682;BME280;47577;43.610;25.010;2023-01-27T06:46:08;99880.69;;;2.86;100.00
61682;BME280;47577;43.610;25.010;2023-01-27T06:48:34;99866.66;;;2.89;100.00
61682;BME280;47577;43.610;25.010;2023-01-27T06:51:00;99861.56;;;2.72;100.00
61682;BME280;47577;43.610;25.010;2023-01-27T06:53:25;99870.28;;;2.79;100.00
61682;BME280;47577;43.610;25.010;2023-01-27T06:55:59;99877.09;;;2.97;100.00
61682;BME280;47577;43.610;25.010;2023-01-27T06:58:25;99868.53;;;2.78;100.00
61682;BME280;47577;43.610;25.010;2023-01-27T07:00:51;99880.66;;;2.88;99.81
61682;BME280;47577;43.610;25.010;2023-01-27T07:03:17;99893.94;;;2.76;100.00
61682;BME280;47577;43.610;25.010;2023-01-27T07:05:43;99883.34;;;2.85;99.62
61682;BME280;47577;43.610;25.010;2023-01-27T07:08:09;99894.78;;;2.79;98.92
61682;BME280;47577;43.610;25.010;2023-01-27T07:10:34;99890.31;;;2.89;98.99
61682;BME280;47577;43.610;25.010;2023-01-27T07:13:05;99895.59;;;2.84;99.36
61682;BME280;47577;43.610;25.010;2023-01-27T07:15:31;99883.50;;;2.69;99.81
61682;BME280;47577;43.610;25.010;2023-01-27T07:17:58;99891.31;;;2.76;99.99
61682;BME280;47577;43.610;25.010;2023-01-27T07:20:23;99884.28;;;2.78;98.99
61682;BME280;47577;43.610;25.010;2023-01-27T07:22:52;99885.16;;;2.77;98.72
61682;BME280;47577;43.610;25.010;2023-01-27T07:25:18;99888.72;;;2.72;99.19
61682;BME280;47577;43.610;25.010;2023-01-27T07:27:43;99878.19;;;2.77;99.25
61682;BME280;47577;43.610;25.010;2023-01-27T07:30:11;99886.91;;;2.79;97.64
61682;BME280;47577;43.610;25.010;2023-01-27T07:32:36;99879.94;;;2.75;98.54
61682;BME280;47577;43.610;25.010;2023-01-27T07:35:02;99884.31;;;2.76;98.85
61682;BME280;47577;43.610;25.010;2023-01-27T07:37:28;99881.78;;;2.65;98.45
61682;BME280;47577;43.610;25.010;2023-01-27T07:39:53;99894.78;;;2.78;98.52
61682;BME280;47577;43.610;25.010;2023-01-27T07:42:19;99890.50;;;2.69;98.56
61682;BME280;47577;43.610;25.010;2023-01-27T07:44:44;99901.81;;;2.76;98.36
61682;BME280;47577;43.610;25.010;2023-01-27T07:47:10;99894.00;;;2.71;97.78
61682;BME280;47577;43.610;25.010;2023-01-27T07:49:36;99891.38;;;2.71;98.43
61682;BME280;47577;43.610;25.010;2023-01-27T07:52:01;99877.34;;;2.69;98.62
61682;BME280;47577;43.610;25.010;2023-01-27T07:54:27;99899.25;;;2.71;98.05
61682;BME280;47577;43.610;25.010;2023-01-27T07:56:53;99894.03;;;2.68;98.08
61682;BME280;47577;43.610;25.010;2023-01-27T07:59:18;99887.13;;;2.58;97.52
61682;BME280;47577;43.610;25.010;2023-01-27T08:01:44;99891.56;;;2.48;98.76
61682;BME280;47577;43.610;25.010;2023-01-27T08:04:09;99900.31;;;2.51;99.04
61682;BME280;47577;43.610;25.010;2023-01-27T08:06:38;99883.75;;;2.43;100.00
61682;BME280;47577;43.610;25.010;2023-01-27T08:09:04;99888.91;;;2.51;99.61
61682;BME280;47577;43.610;25.010;2023-01-27T08:11:30;99884.59;;;2.47;100.00
61682;BME280;47577;43.610;25.010;2023-01-27T08:13:56;99899.41;;;2.49;99.90
61682;BME280;47577;43.610;25.010;2023-01-27T08:16:21;99891.63;;;2.42;99.77
61682;BME280;47577;43.610;25.010;2023-01-27T08:18:47;99890.75;;;2.41;99.61
61682;BME280;47577;43.610;25.010;2023-01-27T08:21:13;99897.75;;;2.41;99.93
61682;BME280;47577;43.610;25.010;2023-01-27T08:23:39;99881.25;;;2.26;99.84
61682;BME280;47577;43.610;25.010;2023-01-27T08:26:08;99885.59;;;2.33;99.28
61682;BME280;47577;43.610;25.010;2023-01-27T08:28:36;99871.69;;;2.22;98.63
61682;BME280;47577;43.610;25.010;2023-01-27T08:31:03;99875.94;;;2.34;98.74
61682;BME280;47577;43.610;25.010;2023-01-27T08:33:29;99882.06;;;2.34;98.11
61682;BME280;47577;43.610;25.010;2023-01-27T08:36:00;99875.97;;;2.32;98.24
61682;BME280;47577;43.610;25.010;2023-01-27T08:38:26;99875.16;;;2.26;98.37
61682;BME280;47577;43.610;25.010;2023-01-27T08:40:52;99854.16;;;2.26;98.13
61682;BME280;47577;43.610;25.010;2023-01-27T08:43:17;99871.59;;;2.28;97.75
61682;BME280;47577;43.610;25.010;2023-01-27T08:45:45;99863.72;;;2.30;98.70
61682;BME280;47577;43.610;25.010;2023-01-27T08:48:11;99866.44;;;2.24;98.12
61682;BME280;47577;43.610;25.010;2023-01-27T08:50:37;99874.22;;;2.30;98.52
61682;BME280;47577;43.610;25.010;2023-01-27T08:53:03;99864.69;;;2.21;98.41
61682;BME280;47577;43.610;25.010;2023-01-27T08:55:30;99869.06;;;2.22;99.18
61682;BME280;47577;43.610;25.010;2023-01-27T08:57:58;99869.84;;;2.32;98.33
61682;BME280;47577;43.610;25.010;2023-01-27T09:00:24;99857.63;;;2.26;98.32
61682;BME280;47577;43.610;25.010;2023-01-27T09:02:51;99865.44;;;2.35;97.89
61682;BME280;47577;43.610;25.010;2023-01-27T09:05:17;99843.66;;;2.26;97.89
61682;BME280;47577;43.610;25.010;2023-01-27T09:07:44;99858.47;;;2.33;98.14
61682;BME280;47577;43.610;25.010;2023-01-27T09:10:11;99848.88;;;2.30;97.75
61682;BME280;47577;43.610;25.010;2023-01-27T09:12:36;99841.91;;;2.25;98.00
61682;BME280;47577;43.610;25.010;2023-01-27T09:15:02;99844.50;;;2.31;98.21
61682;BME280;47577;43.610;25.010;2023-01-27T09:17:28;99832.34;;;2.19;97.87
61682;BME280;47577;43.610;25.010;2023-01-27T09:19:53;99840.19;;;2.22;97.64
61682;BME280;47577;43.610;25.010;2023-01-27T09:22:19;99833.22;;;2.21;97.97
61682;BME280;47577;43.610;25.010;2023-01-27T09:24:45;99840.13;;;2.28;98.23
61682;BME280;47577;43.610;25.010;2023-01-27T09:27:10;99835.00;;;2.17;97.54
61682;BME280;47577;43.610;25.010;2023-01-27T09:29:36;99840.22;;;2.21;97.50
61682;BME280;47577;43.610;25.010;2023-01-27T09:32:02;99821.13;;;2.03;97.68
61682;BME280;47577;43.610;25.010;2023-01-27T09:34:28;99839.31;;;2.23;98.33
61682;BME280;47577;43.610;25.010;2023-01-27T09:36:58;99853.22;;;2.30;97.58
61682;BME280;47577;43.610;25.010;2023-01-27T09:39:25;99835.81;;;2.23;97.50
61682;BME280;47577;43.610;25.010;2023-01-27T09:52:45;99854.16;;;2.27;96.04
61682;BME280;47577;43.610;25.010;2023-01-27T09:58:36;99847.22;;;2.18;95.01
61682;BME280;47577;43.610;25.010;2023-01-27T10:01:21;99835.09;;;2.04;96.54
61682;BME280;47577;43.610;25.010;2023-01-27T10:09:37;99833.31;;;2.06;96.99
61682;BME280;47577;43.610;25.010;2023-01-27T10:12:17;99836.00;;;2.03;97.03
61682;BME280;47577;43.610;25.010;2023-01-27T10:15:00;99835.13;;;1.99;97.07
61682;BME280;47577;43.610;25.010;2023-01-27T10:20:13;99829.84;;;2.02;96.24
61682;BME280;47577;43.610;25.010;2023-01-27T10:25:52;99818.72;;;1.74;98.07
61682;BME280;47577;43.610;25.010;2023-01-27T10:28:22;99811.69;;;1.80;97.72
61682;BME280;47577;43.610;25.010;2023-01-27T10:33:55;99811.66;;;1.83;96.44
61682;BME280;47577;43.610;25.010;2023-01-27T10:50:08;99807.28;;;1.82;93.98
61682;BME280;47577;43.610;25.010;2023-01-27T10:52:43;99809.88;;;1.86;94.26
61682;BME280;47577;43.610;25.010;2023-01-27T10:55:18;99788.97;;;1.79;93.07
61682;BME280;47577;43.610;25.010;2023-01-27T11:00:41;99803.75;;;1.90;91.98
61682;BME280;47577;43.610;25.010;2023-01-27T11:03:10;99800.25;;;1.86;92.29
61682;BME280;47577;43.610;25.010;2023-01-27T11:06:12;99802.88;;;1.89;92.54
61682;BME280;47577;43.610;25.010;2023-01-27T11:08:43;99800.28;;;1.85;91.50
61682;BME280;47577;43.610;25.010;2023-01-27T11:11:10;99805.53;;;1.83;92.24
61682;BME280;47577;43.610;25.010;2023-01-27T11:14:02;99812.50;;;1.86;91.87
61682;BME280;47577;43.610;25.010;2023-01-27T11:16:34;99797.75;;;1.74;91.81
61682;BME280;47577;43.610;25.010;2023-01-27T11:19:09;99800.41;;;1.68;91.89
61682;BME280;47577;43.610;25.010;2023-01-27T11:21:38;99789.97;;;1.60;91.57
61682;BME280;47577;43.610;25.010;2023-01-27T11:24:21;99798.66;;;1.68;91.93
61682;BME280;47577;43.610;25.010;2023-01-27T11:26:56;99796.06;;;1.62;91.50
61682;BME280;47577;43.610;25.010;2023-01-27T11:29:31;99797.00;;;1.58;91.98
61682;BME280;47577;43.610;25.010;2023-01-27T11:35:13;99790.00;;;1.55;92.09
61682;BME280;47577;43.610;25.010;2023-01-27T11:37:42;99783.91;;;1.53;92.20
61682;BME280;47577;43.610;25.010;2023-01-27T11:40:35;99789.13;;;1.56;91.89
61682;BME280;47577;43.610;25.010;2023-01-27T11:43:03;99783.94;;;1.49;92.04
61682;BME280;47577;43.610;25.010;2023-01-27T11:45:35;99771.75;;;1.44;92.08
61682;BME280;47577;43.610;25.010;2023-01-27T11:48:07;99797.00;;;1.58;92.18
61682;BME280;47577;43.610;25.010;2023-01-27T11:50:36;99783.91;;;1.52;92.21
61682;BME280;47577;43.610;25.010;2023-01-27T11:53:13;99783.91;;;1.52;92.09
61682;BME280;47577;43.610;25.010;2023-01-27T11:55:46;99785.66;;;1.53;91.60
61682;BME280;47577;43.610;25.010;2023-01-27T11:58:19;99794.41;;;1.53;91.87
61682;BME280;47577;43.610;25.010;2023-01-27T12:00:58;99778.69;;;1.49;91.85
61682;BME280;47577;43.610;25.010;2023-01-27T12:06:12;99779.63;;;1.44;91.94
61682;BME280;47577;43.610;25.010;2023-01-27T12:08:46;99771.78;;;1.41;91.80
61682;BME280;47577;43.610;25.010;2023-01-27T12:11:27;99780.50;;;1.37;91.98
61682;BME280;47577;43.610;25.010;2023-01-27T12:13:59;99796.22;;;1.42;92.64
61682;BME280;47577;43.610;25.010;2023-01-27T12:16:44;99778.81;;;1.32;92.33
61682;BME280;47577;43.610;25.010;2023-01-27T12:19:29;99780.50;;;1.39;92.66
61682;BME280;47577;43.610;25.010;2023-01-27T12:22:00;99786.56;;;1.47;92.50
61682;BME280;47577;43.610;25.010;2023-01-27T12:24:33;99789.19;;;1.44;91.89
61682;BME280;47577;43.610;25.010;2023-01-27T12:27:00;99794.44;;;1.47;91.81
61682;BME280;47577;43.610;25.010;2023-01-27T12:29:32;99777.91;;;1.36;92.58
61682;BME280;47577;43.610;25.010;2023-01-27T12:32:02;99789.34;;;1.24;92.68
61682;BME280;47577;43.610;25.010;2023-01-27T12:34:37;99784.06;;;1.28;92.42
61682;BME280;47577;43.610;25.010;2023-01-27T12:37:05;99783.13;;;1.37;92.37
61682;BME280;47577;43.610;25.010;2023-01-27T12:39:44;99807.56;;;1.42;91.44
61682;BME280;47577;43.610;25.010;2023-01-27T12:43:02;99792.75;;;1.40;92.34
61682;BME280;47577;43.610;25.010;2023-01-27T12:45:28;99795.38;;;1.38;92.35
61682;BME280;47577;43.610;25.010;2023-01-27T12:50:39;99806.69;;;1.40;92.40
61682;BME280;47577;43.610;25.010;2023-01-27T12:55:37;99811.09;;;1.38;91.95
61682;BME280;47577;43.610;25.010;2023-01-27T12:58:04;99802.31;;;1.44;92.20
61682;BME280;47577;43.610;25.010;2023-01-27T13:00:30;99801.47;;;1.39;91.94
61682;BME280;47577;43.610;25.010;2023-01-27T13:03:10;99803.22;;;1.37;91.90
61682;BME280;47577;43.610;25.010;2023-01-27T13:05:38;99814.56;;;1.42;91.82
61682;BME280;47577;43.610;25.010;2023-01-27T13:08:12;99810.22;;;1.39;91.86
61682;BME280;47577;43.610;25.010;2023-01-27T13:10:52;99799.75;;;1.35;91.79
61682;BME280;47577;43.610;25.010;2023-01-27T13:13:29;99794.53;;;1.32;92.23
61682;BME280;47577;43.610;25.010;2023-01-27T13:16:14;99815.47;;;1.36;92.00
61682;BME280;47577;43.610;25.010;2023-01-27T13:18:41;99794.53;;;1.32;92.65
61682;BME280;47577;43.610;25.010;2023-01-27T13:21:18;99814.56;;;1.40;92.07
61682;BME280;47577;43.610;25.010;2023-01-27T13:23:47;99817.16;;;1.42;91.83
61682;BME280;47577;43.610;25.010;2023-01-27T13:26:19;99806.72;;;1.37;92.20
61682;BME280;47577;43.610;25.010;2023-01-27T13:29:23;99822.38;;;1.46;92.04
61682;BME280;47577;43.610;25.010;2023-01-27T13:34:49;99807.63;;;1.33;92.22
61682;BME280;47577;43.610;25.010;2023-01-27T13:37:25;99819.78;;;1.46;91.93
61682;BME280;47577;43.610;25.010;2023-01-27T13:40:11;99824.13;;;1.48;91.81
61682;BME280;47577;43.610;25.010;2023-01-27T13:45:24;99811.94;;;1.40;91.21
61682;BME280;47577;43.610;25.010;2023-01-27T13:47:56;99814.56;;;1.42;91.16
61682;BME280;47577;43.610;25.010;2023-01-27T13:50:29;99824.16;;;1.46;91.21
61682;BME280;47577;43.610;25.010;2023-01-27T13:52:57;99820.63;;;1.50;91.20
61682;BME280;47577;43.610;25.010;2023-01-27T14:01:01;99824.13;;;1.49;91.26
61682;BME280;47577;43.610;25.010;2023-01-27T14:22:42;99841.69;;;1.30;91.83
61682;BME280;47577;43.610;25.010;2023-01-27T14:25:16;99836.47;;;1.22;92.05
61682;BME280;47577;43.610;25.010;2023-01-27T14:27:51;99826.00;;;1.25;92.28
61682;BME280;47577;43.610;25.010;2023-01-27T14:30:40;99823.38;;;1.25;91.75
61682;BME280;47577;43.610;25.010;2023-01-27T14:33:20;99833.81;;;1.32;91.93
61682;BME280;47577;43.610;25.010;2023-01-27T14:41:53;99840.75;;;1.40;91.45
61682;BME280;47577;43.610;25.010;2023-01-27T15:08:34;99863.47;;;1.43;90.67
61682;BME280;47577;43.610;25.010;2023-01-27T15:11:33;99854.81;;;1.25;91.17
61682;BME280;47577;43.610;25.010;2023-01-27T15:22:39;99846.09;;;1.19;91.73
61682;BME280;47577;43.610;25.010;2023-01-27T15:25:22;99874.84;;;1.34;91.60
61682;BME280;47577;43.610;25.010;2023-01-27T15:27:54;99861.75;;;1.30;91.37
61682;BME280;47577;43.610;25.010;2023-01-27T15:32:54;99873.06;;;1.41;90.81
61682;BME280;47577;43.610;25.010;2023-01-27T15:35:36;99877.44;;;1.42;91.07
61682;BME280;47577;43.610;25.010;2023-01-27T15:41:11;99881.81;;;1.41;90.89